Galata, Montana
Current Conditions -  °F | °C
As of 12:56 AM on Thursday 27 Nov 2014 (Local Time) from KCTB Reporting Station
Moderate Fog Moderate Fog  
Wind Chill: 16°   Ceiling: 100
Heat Index: 26°   Visibility: 0.25mi
Dew Point: 25°   Wind: 12mph
Humidity: 96%   Direction: 140°SE
Pressure: 29.9"   Gusts: NA
Location:  48.48°N, 111.35°W
Report Text: KCTB 270756Z AUTO 14010KT 1/4SM FZFG VV001 M03/M04 A2990 RMK AO2 SLP162 I1004 T10331039
Loading
Personal Weather Stations






























Interactive Weather Map New forecast layout! Learn more

10-Day Weather Forecast

Advertisements
Track Severe Weather on mobile